首页
METAR-TAF:

METAR-TAF

机场 :

巴統國際機場

巴统, 格鲁吉亚

纬度: 41-36-37N, 经度: 041-35-58E, 海拔: 32米

当前天气观测

该预报发布于33分钟前的15:00 UTC
风速9节,风向西转西南
温度 26°C
湿度 79%
气压 1009 hPa
能见度10公里或以上
散云层高于2000英尺, 积雨云.
多云层高于7700英尺
附近有雷暴

METAR: UGSB 181500Z 24009KT 9999 VCTS SCT020CB BKN077 26/22 Q1009 NOSIG

时间: 19:33 (15:33 UTC)

预报

该预报发布于4小时和33分钟前的11:00 UTC
预报有效从18日的 12点(UTC)到 19日的 12点(UTC)
风速6节,风向西
能见度10公里或以上
少量云层高于2300英尺
散云层高于10000英尺
短暂存在
从 18日的 12点(UTC)到 18日的 21点(UTC)
风速12节,风向多变
能見度: 5000
散云层高于1500英尺
多云层高于2500英尺, 积雨云.
雷暴, 雨
几率 40% :
短暂存在
从 18日的 21点(UTC)到 19日的 06点(UTC)
散云层高于2000英尺, 积雨云.
雷暴, 雨

TAF: UGSB 181100Z 1812/1912 26006KT 9999 FEW023 SCT100 TX27/1912Z TN22/1901Z TEMPO 1812/1821 VRB12KT 5000 TSRA SCT015 BKN025CB PROB40 TEMPO 1821/1906 TSRA SCT020CB

超过4000个机场的气象观测和天气预报(METAR&TAF报告)。

可查询的气象台以黄色和红色小点在地图上表示。

将鼠标移到小点上方,可查看气象台名称。

然后点击查看天气观测和预报。

如需切换地图:点击带黑十字的绿色按钮放大地图;点击带横线的绿色按钮缩小地图;或者点击绿色箭头查看邻近地区的地图。


METAR-TAF: